Time;durP1;ratioP1;P1;durP2;ratioP2;P2;SDS_P1;SDS_P2;PMS_P1;PMS_P2;Temp;Humidity;BMP_temperature;BMP_pressure;BME280_temperature;BME280_humidity;BME280_pressure;Samples;Min_cycle;Max_cycle;Signal;HPM_P1;HPM_P2
2024/04/04 00:01:10;;;;;;;2.08;0.80;;;;;;;19.08;32.44;98680.31;5011222;28;20497;-85
2024/04/04 00:03:39;;;;;;;4.57;0.90;;;;;;;19.08;32.50;98685.59;5027994;28;20053;-85
2024/04/04 00:06:05;;;;;;;2.30;0.90;;;;;;;19.07;32.55;98687.44;5028230;28;20058;-84
2024/04/04 00:08:31;;;;;;;2.47;0.80;;;;;;;19.03;32.55;98680.00;5011492;28;20079;-85
2024/04/04 00:11:06;;;;;;;2.03;0.73;;;;;;;19.04;32.75;98690.41;5011977;28;20034;-85
2024/04/04 00:13:31;;;;;;;2.55;0.85;;;;;;;19.00;32.46;98678.53;5021264;28;20022;-83
2024/04/04 00:15:59;;;;;;;4.50;0.95;;;;;;;19.01;32.57;98684.63;5024655;28;20042;-86
2024/04/04 00:18:24;;;;;;;2.70;0.75;;;;;;;18.95;32.68;98675.59;5043185;28;20057;-85
2024/04/04 00:20:50;;;;;;;6.75;0.80;;;;;;;18.98;32.64;98678.69;5028150;28;20042;-85
2024/04/04 00:23:15;;;;;;;2.05;0.90;;;;;;;18.97;32.72;98682.34;5027076;28;20489;-85
2024/04/04 00:25:42;;;;;;;2.63;0.80;;;;;;;18.95;32.92;98681.69;5011307;28;20034;-84
2024/04/04 00:28:08;;;;;;;2.45;0.82;;;;;;;18.88;32.95;98669.31;5012606;28;20037;-84
2024/04/04 00:30:34;;;;;;;2.53;0.80;;;;;;;18.87;33.07;98665.84;5011253;28;20034;-85
2024/04/04 00:33:00;;;;;;;2.65;0.80;;;;;;;18.88;33.05;98678.09;5011121;28;20061;-83
2024/04/04 00:35:26;;;;;;;2.97;1.15;;;;;;;18.87;33.21;98675.63;5015129;28;20074;-83
2024/04/04 00:37:52;;;;;;;2.42;0.80;;;;;;;18.81;33.15;98674.44;5014390;28;20030;-83
2024/04/04 00:40:17;;;;;;;1.75;0.70;;;;;;;18.81;33.31;98685.84;5011056;28;20161;-82
2024/04/04 00:42:43;;;;;;;2.03;0.90;;;;;;;18.81;33.30;98677.91;5026608;28;20025;-83
2024/04/04 00:45:09;;;;;;;2.40;0.60;;;;;;;18.81;33.32;98682.38;5010348;28;20036;-82
2024/04/04 00:47:34;;;;;;;3.22;0.90;;;;;;;18.80;33.45;98683.38;5011491;28;20424;-84
2024/04/04 00:50:00;;;;;;;2.00;0.70;;;;;;;18.79;33.39;98682.56;5010575;28;20040;-84
2024/04/04 00:52:26;;;;;;;3.97;0.93;;;;;;;18.78;33.47;98680.06;5031251;28;20067;-83
2024/04/04 00:54:51;;;;;;;1.30;0.60;;;;;;;18.76;33.45;98682.06;5030714;28;20149;-83
2024/04/04 00:57:17;;;;;;;3.83;0.90;;;;;;;18.72;33.60;98680.75;5014563;28;20072;-83
2024/04/04 00:59:42;;;;;;;3.05;0.98;;;;;;;18.67;33.71;98675.16;5014571;28;20041;-84
2024/04/04 01:02:08;;;;;;;2.13;0.80;;;;;;;18.65;33.88;98677.16;5031036;28;20429;-83
2024/04/04 01:04:33;;;;;;;2.30;1.00;;;;;;;18.65;33.90;98680.63;5014463;28;20113;-83
2024/04/04 01:06:59;;;;;;;5.20;1.02;;;;;;;18.61;33.90;98674.84;5014023;28;20485;-82
2024/04/04 01:09:24;;;;;;;2.20;0.98;;;;;;;18.64;33.94;98678.97;5030247;28;20022;-80
2024/04/04 01:11:49;;;;;;;3.78;0.90;;;;;;;18.60;34.20;98675.03;5013848;28;20104;-84
2024/04/04 01:14:15;;;;;;;2.88;0.60;;;;;;;18.59;34.18;98671.53;5014289;28;20041;-83
2024/04/04 01:16:40;;;;;;;5.95;0.90;;;;;;;18.56;34.08;98673.69;5030396;28;20527;-84
2024/04/04 01:19:06;;;;;;;1.52;0.80;;;;;;;18.56;34.29;98676.34;5015190;28;20050;-82
2024/04/04 01:21:31;;;;;;;3.10;0.82;;;;;;;18.52;34.43;98678.50;5030584;28;20034;-84
2024/04/04 01:23:57;;;;;;;3.78;1.10;;;;;;;18.49;34.33;98686.78;4997703;28;20034;-82
2024/04/04 01:26:22;;;;;;;2.22;0.70;;;;;;;18.49;34.33;98685.97;5030515;28;20065;-84
2024/04/04 01:28:48;;;;;;;1.85;0.80;;;;;;;18.48;34.38;98679.84;5030815;28;20038;-82
2024/04/04 01:31:14;;;;;;;2.78;0.80;;;;;;;18.47;34.48;98677.34;5012816;28;20033;-81
2024/04/04 01:33:39;;;;;;;1.95;0.77;;;;;;;18.42;34.51;98672.56;5030758;28;20018;-82
2024/04/04 01:36:05;;;;;;;3.67;0.98;;;;;;;18.39;34.42;98665.84;5029706;28;20486;-82
2024/04/04 01:38:31;;;;;;;2.00;0.70;;;;;;;18.42;34.68;98670.78;5029835;28;20057;-83
2024/04/04 01:40:56;;;;;;;4.75;1.10;;;;;;;18.37;34.70;98669.63;4997150;28;20473;-82
2024/04/04 01:43:22;;;;;;;4.32;0.93;;;;;;;18.41;34.54;98676.22;5013183;28;20038;-83
2024/04/04 01:45:47;;;;;;;2.47;0.80;;;;;;;18.42;34.54;98675.22;5013731;28;20421;-80
2024/04/04 01:48:12;;;;;;;5.93;1.10;;;;;;;18.41;34.59;98681.53;5030051;28;20022;-81
2024/04/04 01:50:38;;;;;;;3.22;0.70;;;;;;;18.40;34.52;98674.56;5030117;28;20061;-81
2024/04/04 01:53:04;;;;;;;1.70;0.60;;;;;;;18.41;34.48;98674.41;5030524;28;20454;-82
2024/04/04 01:55:30;;;;;;;1.48;0.80;;;;;;;18.41;34.64;98678.88;5005198;28;20038;-81
2024/04/04 01:57:58;;;;;;;1.77;0.90;;;;;;;18.40;34.56;98687.78;5019028;28;20033;-82
2024/04/04 02:00:24;;;;;;;2.90;0.70;;;;;;;18.36;34.59;98682.03;5013310;28;20506;-81
2024/04/04 02:02:50;;;;;;;5.35;0.90;;;;;;;18.38;34.51;98690.59;5013687;28;20076;-82
2024/04/04 02:05:15;;;;;;;1.98;0.85;;;;;;;18.37;34.57;98688.13;5034965;28;20034;-82
2024/04/04 02:07:41;;;;;;;2.22;0.80;;;;;;;18.36;34.30;98683.81;5039754;28;20440;-82
2024/04/04 02:10:07;;;;;;;3.35;0.68;;;;;;;18.30;34.63;98672.13;5029906;28;20026;-82
2024/04/04 02:12:32;;;;;;;5.93;0.98;;;;;;;18.30;34.68;98668.66;5029612;28;20030;-81
2024/04/04 02:14:57;;;;;;;2.17;0.77;;;;;;;18.31;34.63;98673.78;5028609;28;20064;-80
2024/04/04 02:17:23;;;;;;;2.28;0.70;;;;;;;18.27;34.70;98678.56;4996602;28;20045;-81
2024/04/04 02:19:51;;;;;;;1.95;0.70;;;;;;;18.26;34.79;98678.72;5012598;28;20448;-82
2024/04/04 02:22:17;;;;;;;2.55;0.88;;;;;;;18.24;34.58;98678.06;5029119;28;20068;-82
2024/04/04 02:24:43;;;;;;;1.17;0.60;;;;;;;18.25;34.70;98682.38;5029495;28;20029;-82
2024/04/04 02:27:09;;;;;;;2.30;0.80;;;;;;;18.22;34.80;98680.88;5029266;28;20382;-81
2024/04/04 02:29:34;;;;;;;6.60;0.65;;;;;;;18.19;34.80;98673.28;5012791;28;20033;-82
2024/04/04 02:32:00;;;;;;;2.85;0.70;;;;;;;18.13;34.83;98659.94;4995826;28;20065;-82
2024/04/04 02:34:26;;;;;;;3.08;0.80;;;;;;;18.15;34.91;98671.16;5028847;28;20042;-82
2024/04/04 02:36:51;;;;;;;2.10;0.77;;;;;;;18.12;34.93;98679.41;5013588;28;20057;-82
2024/04/04 02:39:17;;;;;;;5.15;1.05;;;;;;;18.10;34.78;98676.94;5028729;28;20033;-82
2024/04/04 02:41:43;;;;;;;1.77;0.85;;;;;;;18.03;34.68;98668.03;5012358;28;20026;-80
2024/04/04 02:44:09;;;;;;;2.03;0.60;;;;;;;18.05;34.69;98674.78;4995475;28;20128;-81
2024/04/04 02:46:35;;;;;;;2.75;0.70;;;;;;;18.02;34.74;98682.22;5011963;28;20038;-80
2024/04/04 02:49:01;;;;;;;1.98;0.77;;;;;;;18.00;34.83;98685.03;5011569;28;20030;-82
2024/04/04 02:51:27;;;;;;;3.45;0.80;;;;;;;17.95;34.81;98671.50;5011760;28;20038;-82
2024/04/04 02:53:53;;;;;;;2.78;0.60;;;;;;;17.98;34.75;98676.47;5011854;28;20504;-79
2024/04/04 02:56:19;;;;;;;2.60;0.82;;;;;;;17.98;35.05;98662.41;5011543;28;20029;-82
2024/04/04 02:58:44;;;;;;;1.58;0.88;;;;;;;17.98;34.85;98665.91;5027357;28;20386;-81
2024/04/04 03:01:10;;;;;;;2.60;0.90;;;;;;;17.96;34.94;98661.75;4995321;28;20468;-81
2024/04/04 03:03:35;;;;;;;4.90;0.93;;;;;;;17.96;34.84;98662.56;5028593;28;20497;-81
2024/04/04 03:06:01;;;;;;;2.47;1.00;;;;;;;17.93;34.60;98667.38;5012169;28;20080;-82
2024/04/04 03:08:26;;;;;;;2.70;0.90;;;;;;;17.93;34.89;98665.53;5012197;28;20056;-82
2024/04/04 03:10:52;;;;;;;2.33;0.90;;;;;;;17.92;35.12;98660.44;5012498;28;20037;-83
2024/04/04 03:13:17;;;;;;;1.35;0.70;;;;;;;17.85;35.09;98670.81;4995152;28;20038;-81
2024/04/04 03:15:53;;;;;;;2.42;1.00;;;;;;;17.84;35.13;98667.34;5011922;28;20066;-81
2024/04/04 03:18:19;;;;;;;2.55;0.70;;;;;;;17.85;35.29;98674.28;5011299;28;20030;-81
2024/04/04 03:20:44;;;;;;;3.58;0.88;;;;;;;17.84;35.23;98672.63;5012496;28;20053;-81
2024/04/04 03:23:10;;;;;;;4.05;0.88;;;;;;;17.84;35.41;98671.81;4995328;28;20030;-80
2024/04/04 03:25:35;;;;;;;1.88;0.70;;;;;;;17.84;35.07;98667.34;5028689;28;20037;-82
2024/04/04 03:28:01;;;;;;;2.45;0.75;;;;;;;17.83;35.14;98664.88;5012663;28;20033;-83
2024/04/04 03:30:26;;;;;;;2.88;0.82;;;;;;;17.81;35.06;98662.41;5012854;28;20473;-83
2024/04/04 03:32:52;;;;;;;5.18;0.63;;;;;;;17.82;35.29;98663.22;5028556;28;20034;-82
2024/04/04 03:35:18;;;;;;;2.10;0.70;;;;;;;17.82;35.15;98671.13;5012681;28;20058;-82
2024/04/04 03:37:43;;;;;;;1.58;0.80;;;;;;;17.76;35.27;98664.72;4994855;28;20044;-81
2024/04/04 03:40:09;;;;;;;2.47;0.73;;;;;;;17.78;35.37;98667.19;5028941;28;20038;-81
2024/04/04 03:42:35;;;;;;;3.03;0.70;;;;;;;17.70;35.38;98658.28;5028649;28;20034;-81
2024/04/04 03:45:00;;;;;;;3.38;0.73;;;;;;;17.76;35.48;98669.16;5028903;28;20030;-80
2024/04/04 03:47:26;;;;;;;2.40;1.08;;;;;;;17.76;35.43;98661.22;5013355;28;20026;-81
2024/04/04 03:49:52;;;;;;;6.15;3.65;;;;;;;17.86;41.14;98669.81;5028428;28;20037;-81
2024/04/04 03:52:17;;;;;;;11.52;7.22;;;;;;;17.83;40.16;98659.59;5031015;28;20037;-87
2024/04/04 03:54:42;;;;;;;13.73;7.72;;;;;;;17.83;39.37;98660.41;5003987;28;20037;-83
2024/04/04 03:57:08;;;;;;;13.73;9.02;;;;;;;17.87;39.02;98663.56;5028540;28;20022;-80
2024/04/04 03:59:34;;;;;;;16.17;10.15;;;;;;;17.83;38.65;98654.31;5010659;28;20489;-78
2024/04/04 04:02:00;;;;;;;14.38;9.80;;;;;;;17.84;38.66;98664.72;4978203;28;20131;-84
2024/04/04 04:04:25;;;;;;;13.68;9.27;;;;;;;17.85;38.24;98663.72;5028961;28;20026;-77
2024/04/04 04:06:51;;;;;;;13.90;8.80;;;;;;;17.86;38.14;98660.09;5015996;28;20425;-81
2024/04/04 04:09:16;;;;;;;13.88;7.47;;;;;;;17.87;37.91;98656.47;5027961;28;20036;-81
2024/04/04 04:11:42;;;;;;;11.25;6.85;;;;;;;17.88;37.79;98660.78;5011563;28;20053;-83
2024/04/04 04:14:08;;;;;;;9.05;5.65;;;;;;;18.05;37.80;98671.34;5012349;28;20030;-83
2024/04/04 04:16:33;;;;;;;8.40;4.80;;;;;;;18.55;36.70;98662.31;5034032;28;20033;-83
2024/04/04 04:18:59;;;;;;;7.03;3.92;;;;;;;19.02;38.35;98658.00;5014851;28;20026;-78
2024/04/04 04:21:24;;;;;;;11.98;3.92;;;;;;;19.19;42.57;98671.16;5011874;28;20034;-77
2024/04/04 04:23:51;;;;;;;6.38;1.92;;;;;;;19.26;48.27;98677.41;5026788;28;20057;-80
2024/04/04 04:26:16;;;;;;;7.18;2.22;;;;;;;19.31;43.67;98672.44;4998494;28;20478;-80
2024/04/04 04:28:42;;;;;;;6.35;2.20;;;;;;;20.19;40.01;98673.75;5015825;28;20034;-79
2024/04/04 04:31:33;;;;;;;3.58;1.90;;;;;;;20.51;37.38;98669.13;5015697;28;20034;-84
2024/04/04 04:34:00;;;;;;;5.55;1.95;;;;;;;20.18;36.96;98673.94;5020297;28;20108;-81
2024/04/04 04:36:26;;;;;;;7.65;2.25;;;;;;;20.02;36.22;98670.44;5001130;28;20042;-76
2024/04/04 04:38:52;;;;;;;5.07;2.20;;;;;;;19.93;35.74;98671.50;4998298;28;20045;-76
2024/04/04 04:41:18;;;;;;;3.42;1.48;;;;;;;19.79;35.16;98677.56;5014242;28;20044;-74
2024/04/04 04:43:46;;;;;;;8.05;4.30;;;;;;;19.72;34.86;98674.78;5011847;28;20042;-75
2024/04/04 04:46:15;;;;;;;9.57;4.33;;;;;;;19.67;34.40;98672.66;5011568;28;20041;-76
2024/04/04 04:48:41;;;;;;;6.90;4.13;;;;;;;19.61;34.49;98670.72;5028877;28;20279;-76
2024/04/04 04:51:07;;;;;;;10.95;5.72;;;;;;;19.55;34.43;98671.44;5012850;28;20441;-74
2024/04/04 04:53:33;;;;;;;10.10;6.95;;;;;;;19.51;34.34;98667.47;4996025;28;20038;-78
2024/04/04 04:55:58;;;;;;;14.75;8.25;;;;;;;19.53;34.36;98668.16;5029456;28;20048;-76
2024/04/04 04:58:24;;;;;;;12.63;7.40;;;;;;;19.62;34.08;98675.00;5014431;28;20030;-76
2024/04/04 05:00:51;;;;;;;11.10;6.50;;;;;;;19.63;34.18;98675.84;5014410;28;20054;-75
2024/04/04 05:03:17;;;;;;;14.17;5.97;;;;;;;19.74;34.13;98680.72;5030709;28;20024;-76
2024/04/04 05:05:43;;;;;;;8.38;5.25;;;;;;;20.01;33.36;98678.56;5014237;28;20332;-76
2024/04/04 05:08:08;;;;;;;8.40;5.13;;;;;;;20.06;33.52;98676.19;5029833;28;20038;-76
2024/04/04 05:10:34;;;;;;;15.73;4.82;;;;;;;20.38;33.19;98690.13;5030654;28;20492;-77
2024/04/04 05:12:59;;;;;;;10.05;4.03;;;;;;;20.76;32.71;98682.94;5013810;28;20068;-73
2024/04/04 05:15:24;;;;;;;10.30;3.33;;;;;;;21.00;32.37;98683.66;4997562;28;20037;-77
2024/04/04 05:17:50;;;;;;;12.60;3.40;;;;;;;21.42;31.74;98679.41;5014190;28;20045;-75
2024/04/04 05:20:16;;;;;;;9.23;2.90;;;;;;;22.51;30.12;98685.47;4997404;28;20030;-75
2024/04/04 05:22:42;;;;;;;10.48;2.47;;;;;;;23.09;29.54;98690.50;5013567;28;20109;-78
2024/04/04 05:25:08;;;;;;;7.75;1.45;;;;;;;23.20;39.26;98692.59;5014130;28;20121;-76
2024/04/04 05:27:33;;;;;;;4.97;1.08;;;;;;;23.96;37.79;98696.06;5014127;28;20057;-75
2024/04/04 05:30:07;;;;;;;6.43;1.27;;;;;;;25.20;35.17;98699.69;4997903;28;20465;-78
2024/04/04 05:32:33;;;;;;;10.88;1.48;;;;;;;26.18;32.90;98698.47;5015199;28;20041;-77
2024/04/04 05:34:58;;;;;;;7.68;1.30;;;;;;;27.84;29.83;98703.94;4997502;28;20030;-73
2024/04/04 05:37:23;;;;;;;14.32;1.70;;;;;;;29.17;26.50;98706.13;5012181;28;20160;-73
2024/04/04 05:39:49;;;;;;;13.23;1.92;;;;;;;30.21;23.97;98690.75;5012281;28;20034;-71
2024/04/04 05:42:15;;;;;;;11.25;1.55;;;;;;;30.77;21.59;98696.91;5028128;28;20062;-75
2024/04/04 05:44:41;;;;;;;12.32;1.60;;;;;;;31.23;20.18;98687.78;5012553;28;20026;-75
2024/04/04 05:47:06;;;;;;;7.75;1.60;;;;;;;31.71;20.10;98673.44;5029721;28;20030;-74
2024/04/04 05:49:32;;;;;;;13.15;1.70;;;;;;;32.01;19.99;98682.84;5012988;28;20033;-74
2024/04/04 05:51:57;;;;;;;6.30;1.50;;;;;;;31.95;18.98;98685.78;5028336;28;20084;-75
2024/04/04 05:54:23;;;;;;;5.32;1.15;;;;;;;31.89;18.33;98684.91;5028915;28;20489;-74
2024/04/04 05:56:48;;;;;;;10.63;1.58;;;;;;;31.97;18.01;98680.91;5013037;28;20045;-73
2024/04/04 05:59:14;;;;;;;5.50;2.58;;;;;;;31.84;17.99;98677.56;5027665;28;20049;-75
2024/04/04 06:01:40;;;;;;;7.15;1.60;;;;;;;31.35;18.06;98677.66;5029153;28;20058;-74
2024/04/04 06:04:05;;;;;;;2.83;1.10;;;;;;;31.07;17.79;98676.81;5029688;28;20128;-75
2024/04/04 06:06:31;;;;;;;3.65;1.30;;;;;;;31.02;18.52;98674.88;5010957;28;20089;-78
2024/04/04 06:08:57;;;;;;;27.60;18.88;;;;;;;30.70;17.97;98684.72;5030437;28;20092;-74
2024/04/04 06:11:23;;;;;;;15.13;10.38;;;;;;;30.42;18.20;98689.19;4997039;28;20432;-75
2024/04/04 06:13:49;;;;;;;19.80;13.00;;;;;;;30.11;18.61;98692.22;4996858;28;20026;-78
2024/04/04 06:16:14;;;;;;;13.73;5.40;;;;;;;30.18;18.44;98693.94;4978781;28;20026;-76
2024/04/04 06:18:40;;;;;;;8.25;2.50;;;;;;;29.92;18.66;98697.03;5011457;28;20037;-77
2024/04/04 06:21:06;;;;;;;26.35;17.65;;;;;;;30.19;18.79;98700.94;5011632;28;20409;-74
2024/04/04 06:23:31;;;;;;;11.68;2.45;;;;;;;30.24;18.76;98699.13;4996544;28;20065;-73
2024/04/04 06:25:57;;;;;;;5.90;1.92;;;;;;;30.67;18.43;98696.78;5029149;28;20065;-75
2024/04/04 06:28:22;;;;;;;5.53;2.38;;;;;;;30.26;19.39;98707.78;5028287;28;20500;-73
2024/04/04 06:30:48;;;;;;;5.90;2.00;;;;;;;30.99;18.57;98706.91;5011657;28;20766;-75
2024/04/04 06:33:13;;;;;;;6.43;2.47;;;;;;;30.92;18.89;98708.97;4993753;28;20441;-75
2024/04/04 06:35:39;;;;;;;6.50;1.60;;;;;;;30.33;18.75;98710.31;4994848;28;20042;-76
2024/04/04 06:38:05;;;;;;;8.35;2.70;;;;;;;30.35;18.92;98710.03;5011925;28;20030;-75
2024/04/04 06:40:34;;;;;;;5.88;1.67;;;;;;;30.19;18.80;98712.53;5000525;28;20479;-76
2024/04/04 06:42:59;;;;;;;6.60;1.48;;;;;;;30.13;19.13;98714.31;4995944;28;20042;-76
2024/04/04 06:45:25;;;;;;;9.63;2.08;;;;;;;29.37;19.83;98720.00;5028393;28;20064;-76
2024/04/04 06:47:57;;;;;;;8.30;2.00;;;;;;;29.42;19.70;98712.00;5010751;28;20042;-76
2024/04/04 06:50:25;;;;;;;7.75;2.97;;;;;;;28.89;20.53;98715.78;5011444;28;20468;-74
2024/04/04 06:52:50;;;;;;;14.65;4.63;;;;;;;29.25;20.46;98729.16;5011086;28;20030;-75
2024/04/04 06:55:16;;;;;;;5.60;2.08;;;;;;;29.90;19.44;98725.22;5026310;28;20065;-77
2024/04/04 06:57:41;;;;;;;6.85;1.80;;;;;;;30.15;18.90;98716.75;5011397;28;20037;-75
2024/04/04 07:00:09;;;;;;;7.43;1.65;;;;;;;30.13;18.75;98721.59;5010529;28;20072;-75
2024/04/04 07:02:35;;;;;;;10.73;2.50;;;;;;;30.09;19.61;98720.44;5010834;28;20418;-77
2024/04/04 07:05:04;;;;;;;6.57;1.60;;;;;;;30.24;19.26;98712.59;5027190;28;20057;-76
2024/04/04 07:07:31;;;;;;;8.32;1.63;;;;;;;29.84;19.49;98718.13;5011368;28;20026;-77
2024/04/04 07:09:57;;;;;;;7.35;2.05;;;;;;;30.24;19.33;98714.47;5011920;28;20050;-77
2024/04/04 07:12:22;;;;;;;8.77;1.55;;;;;;;30.52;18.71;98707.34;5012266;28;20093;-74
2024/04/04 07:14:48;;;;;;;6.38;1.52;;;;;;;30.98;18.15;98713.38;5011357;28;20501;-74
2024/04/04 07:17:13;;;;;;;5.38;1.40;;;;;;;31.29;17.97;98706.44;5011380;28;20076;-77
2024/04/04 07:19:39;;;;;;;4.55;1.48;;;;;;;31.33;18.03;98710.28;5011408;28;20481;-75
2024/04/04 07:22:06;;;;;;;3.55;1.30;;;;;;;31.13;18.38;98715.44;5027526;28;20029;-76
2024/04/04 07:24:31;;;;;;;5.03;1.65;;;;;;;30.99;19.95;98709.63;5027944;28;20041;-82
2024/04/04 07:26:57;;;;;;;12.65;1.90;;;;;;;31.31;21.13;98712.41;5012046;28;20034;-79
2024/04/04 07:29:22;;;;;;;7.47;1.70;;;;;;;32.16;20.21;98706.47;5011878;28;20045;-80
2024/04/04 07:31:49;;;;;;;3.97;1.45;;;;;;;32.87;19.48;98712.56;5027682;28;20033;-81
2024/04/04 07:34:15;;;;;;;4.35;1.60;;;;;;;33.44;18.54;98705.47;5010785;28;20041;-84
2024/04/04 07:36:40;;;;;;;6.88;1.70;;;;;;;33.92;17.63;98702.53;5011624;28;20038;-78
2024/04/04 07:39:09;;;;;;;4.95;1.30;;;;;;;34.31;17.32;98696.56;5028766;28;20497;-77
2024/04/04 07:41:35;;;;;;;7.38;1.48;;;;;;;34.64;16.75;98697.81;5011724;28;20137;-77
2024/04/04 07:44:01;;;;;;;9.63;1.70;;;;;;;34.90;16.31;98695.03;5027728;28;20040;-76
2024/04/04 07:46:27;;;;;;;5.20;1.50;;;;;;;35.14;16.59;98706.88;5012332;28;20405;-78
2024/04/04 07:48:53;;;;;;;6.70;1.48;;;;;;;35.35;16.41;98698.63;4994191;28;20038;-80
2024/04/04 07:51:19;;;;;;;6.15;1.48;;;;;;;35.59;16.16;98700.66;5011263;28;20160;-78
2024/04/04 07:53:44;;;;;;;5.35;1.50;;;;;;;35.77;15.83;98697.28;5011554;28;20030;-76
2024/04/04 07:56:11;;;;;;;5.00;1.63;;;;;;;35.92;15.68;98690.91;5012572;28;20030;-78
2024/04/04 07:58:37;;;;;;;7.20;1.60;;;;;;;36.07;15.86;98700.00;5027790;28;20178;-78
2024/04/04 08:01:04;;;;;;;4.03;1.50;;;;;;;36.13;15.49;98691.50;5012756;28;20072;-78
2024/04/04 08:03:32;;;;;;;4.35;1.40;;;;;;;36.18;15.48;98702.34;5028664;28;20060;-78
2024/04/04 08:05:57;;;;;;;7.15;1.67;;;;;;;36.10;18.38;98691.28;5029169;28;20037;-86
2024/04/04 08:08:23;;;;;;;4.60;1.50;;;;;;;35.95;16.58;98700.41;4995620;28;20037;-79
2024/04/04 08:10:49;;;;;;;4.55;1.67;;;;;;;36.04;16.29;98699.47;5011807;28;20048;-80
2024/04/04 08:13:15;;;;;;;10.13;2.28;;;;;;;36.10;16.44;98697.50;5011026;28;20496;-80
2024/04/04 08:15:41;;;;;;;5.20;1.60;;;;;;;36.23;16.46;98698.78;5028207;28;20469;-84
2024/04/04 08:18:07;;;;;;;6.35;1.67;;;;;;;36.35;16.00;98699.19;5028049;28;20034;-81
2024/04/04 08:20:32;;;;;;;5.85;1.55;;;;;;;36.47;15.54;98704.25;5013629;28;20038;-81
2024/04/04 08:22:58;;;;;;;3.30;1.40;;;;;;;36.53;15.28;98699.53;5011929;28;20428;-81
2024/04/04 08:25:24;;;;;;;8.02;1.42;;;;;;;36.62;14.62;98703.25;5012987;28;20037;-80
2024/04/04 08:27:49;;;;;;;3.70;1.40;;;;;;;36.67;15.14;98696.94;5011091;28;20038;-79
2024/04/04 08:30:15;;;;;;;7.35;1.33;;;;;;;36.76;14.59;98703.41;5028562;28;20406;-82
2024/04/04 08:32:40;;;;;;;5.25;1.40;;;;;;;36.73;14.65;98701.25;5012271;28;20401;-82
2024/04/04 08:35:09;;;;;;;4.78;1.40;;;;;;;36.70;14.77;98699.09;5011667;28;20026;-81
2024/04/04 08:37:36;;;;;;;9.35;1.38;;;;;;;36.75;14.79;98693.59;5011474;28;20037;-80
2024/04/04 08:40:01;;;;;;;3.38;1.40;;;;;;;36.66;14.56;98689.88;5026385;28;20092;-77
2024/04/04 08:42:27;;;;;;;7.07;1.60;;;;;;;36.67;14.95;98692.31;5027254;28;20405;-80
2024/04/04 08:44:55;;;;;;;5.38;1.40;;;;;;;36.56;15.16;98683.50;5011141;28;20042;-77
2024/04/04 08:47:20;;;;;;;5.93;1.40;;;;;;;36.57;14.83;98687.00;4995719;28;20033;-78
2024/04/04 08:49:50;;;;;;;4.20;1.50;;;;;;;36.49;14.68;98682.22;5028335;28;20042;-80
2024/04/04 08:52:15;;;;;;;5.78;1.73;;;;;;;36.45;14.85;98679.25;5010702;28;20038;-78
2024/04/04 08:54:41;;;;;;;3.53;1.30;;;;;;;36.42;15.04;98674.41;5011938;28;20033;-79
2024/04/04 08:57:07;;;;;;;4.85;1.30;;;;;;;36.38;15.02;98662.50;5026406;28;20057;-79
2024/04/04 08:59:33;;;;;;;2.88;1.20;;;;;;;36.25;14.67;98665.88;4993351;28;20087;-77
2024/04/04 09:01:58;;;;;;;6.47;1.70;;;;;;;36.22;14.76;98668.06;4993595;28;20080;-77
2024/04/04 09:04:31;;;;;;;5.68;1.70;;;;;;;36.22;14.87;98661.81;5009765;28;20091;-78
2024/04/04 09:06:56;;;;;;;3.05;1.60;;;;;;;36.17;15.02;98659.97;5010165;28;20034;-80
2024/04/04 09:09:23;;;;;;;5.88;1.48;;;;;;;36.10;15.32;98656.75;5011304;28;20122;-79
2024/04/04 09:11:49;;;;;;;6.38;1.40;;;;;;;35.95;14.86;98663.16;5028936;28;20073;-79
2024/04/04 09:14:18;;;;;;;6.60;1.98;;;;;;;35.82;14.93;98653.78;5015001;28;20042;-79
2024/04/04 09:16:44;;;;;;;3.85;1.30;;;;;;;35.69;15.02;98651.69;5032626;28;20026;-78
2024/04/04 09:19:10;;;;;;;6.45;1.67;;;;;;;35.63;15.04;98653.66;5020221;28;20049;-80
2024/04/04 09:21:36;;;;;;;4.15;1.60;;;;;;;35.70;15.13;98653.31;5037740;28;20088;-77
2024/04/04 09:24:04;;;;;;;6.03;1.38;;;;;;;35.62;15.27;98652.03;5030014;28;20026;-78
2024/04/04 09:26:29;;;;;;;;;;;;;;;35.25;15.51;98652.56;5014523;28;20034;-78
2024/04/04 09:28:55;;;;;;;3.97;1.27;;;;;;;34.93;15.48;98638.38;5014010;28;19916;-79
2024/04/04 09:31:22;;;;;;;4.95;1.40;;;;;;;34.94;15.61;98641.88;5030226;28;20053;-78
2024/04/04 09:33:48;;;;;;;8.18;1.50;;;;;;;34.85;16.26;98635.41;5015478;28;20088;-77
2024/04/04 09:36:13;;;;;;;5.93;1.33;;;;;;;34.87;16.55;98631.34;5030529;28;20058;-80
2024/04/04 09:38:39;;;;;;;6.78;1.40;;;;;;;34.72;16.45;98626.78;5030979;28;20037;-78
2024/04/04 09:41:05;;;;;;;4.97;1.25;;;;;;;34.70;16.52;98628.97;5030212;28;20033;-78
2024/04/04 09:43:30;;;;;;;2.90;1.30;;;;;;;34.73;17.01;98636.53;5012221;28;20057;-78
2024/04/04 09:45:56;;;;;;;6.40;1.23;;;;;;;34.60;17.09;98635.25;5029821;28;20040;-79
2024/04/04 09:48:21;;;;;;;4.88;1.38;;;;;;;34.47;16.43;98640.44;5029806;28;20041;-77
2024/04/04 09:50:47;;;;;;;4.63;1.33;;;;;;;34.30;16.40;98633.47;5012827;28;20038;-79
2024/04/04 09:53:14;;;;;;;5.53;1.15;;;;;;;34.26;16.65;98629.66;5029925;28;20121;-79
2024/04/04 09:55:40;;;;;;;5.23;1.37;;;;;;;34.20;16.02;98634.25;5013166;28;20030;-79
2024/04/04 09:58:05;;;;;;;2.92;1.13;;;;;;;34.09;16.56;98627.22;5029709;28;20779;-78
2024/04/04 10:00:32;;;;;;;3.08;1.02;;;;;;;33.83;16.31;98629.19;5013631;28;20150;-79
2024/04/04 10:02:58;;;;;;;4.50;1.08;;;;;;;33.75;16.17;98630.56;5030222;28;20033;-78
2024/04/04 10:05:33;;;;;;;3.75;1.00;;;;;;;33.45;16.22;98634.84;4996519;28;20040;-79
2024/04/04 10:08:09;;;;;;;6.97;1.40;;;;;;;33.29;16.63;98616.97;4997047;28;20053;-79
2024/04/04 10:10:35;;;;;;;4.35;1.10;;;;;;;33.16;16.68;98627.22;4996595;28;20501;-77
2024/04/04 10:13:05;;;;;;;4.38;1.17;;;;;;;32.98;16.56;98623.09;5013197;28;20041;-79
2024/04/04 10:15:45;;;;;;;3.60;1.40;;;;;;;32.65;16.85;98608.16;5013894;28;20045;-77
2024/04/04 10:18:11;;;;;;;3.15;1.10;;;;;;;32.36;16.75;98605.06;5013495;28;20393;-78
2024/04/04 10:20:39;;;;;;;3.67;1.00;;;;;;;32.18;17.12;98595.50;5013224;28;20028;-79
2024/04/04 10:23:05;;;;;;;4.90;1.35;;;;;;;31.99;17.54;98593.22;5013650;28;20053;-78
2024/04/04 10:25:31;;;;;;;3.97;1.30;;;;;;;31.85;17.24;98608.22;5013222;28;20409;-78
2024/04/04 10:28:02;;;;;;;3.70;1.13;;;;;;;31.71;17.77;98586.28;4996406;28;20025;-78
2024/04/04 10:30:27;;;;;;;3.83;1.48;;;;;;;31.62;18.06;98590.53;5028851;28;20109;-79
2024/04/04 10:32:53;;;;;;;4.45;1.38;;;;;;;31.49;17.98;98587.16;5028390;28;20112;-79
2024/04/04 10:35:18;;;;;;;6.65;1.20;;;;;;;31.39;18.58;98587.06;5029200;28;20034;-78
2024/04/04 10:37:43;;;;;;;2.90;1.30;;;;;;;31.30;18.26;98591.31;5029793;28;20030;-79
2024/04/04 10:40:09;;;;;;;3.22;1.08;;;;;;;31.29;18.57;98587.00;5029187;28;20095;-78
2024/04/04 10:42:35;;;;;;;5.18;1.38;;;;;;;31.27;18.56;98586.44;5012462;28;20561;-80
2024/04/04 10:45:00;;;;;;;7.13;1.50;;;;;;;31.24;18.57;98584.25;5010806;28;20026;-78
2024/04/04 10:47:26;;;;;;;3.08;1.20;;;;;;;31.17;18.62;98577.19;5012888;28;20068;-79
2024/04/04 10:49:51;;;;;;;3.08;1.27;;;;;;;31.15;19.25;98575.81;5013219;28;20033;-78
2024/04/04 10:52:17;;;;;;;3.88;1.33;;;;;;;31.11;19.14;98580.09;5029914;28;20118;-78
2024/04/04 10:54:43;;;;;;;4.45;1.45;;;;;;;30.98;18.94;98579.44;5013795;28;20038;-79
2024/04/04 10:57:08;;;;;;;2.10;0.93;;;;;;;30.91;19.30;98580.69;4996621;28;20072;-81
2024/04/04 10:59:34;;;;;;;5.50;1.30;;;;;;;30.80;19.14;98577.06;5012876;28;20042;-78
2024/04/04 11:02:03;;;;;;;4.32;1.00;;;;;;;30.73;19.40;98571.06;5012548;28;20050;-79
2024/04/04 11:04:29;;;;;;;3.95;1.20;;;;;;;30.59;19.00;98571.44;5012495;28;20037;-79
2024/04/04 11:06:54;;;;;;;2.75;1.10;;;;;;;30.45;19.02;98576.38;5011806;28;20712;-79
2024/04/04 11:09:20;;;;;;;2.13;1.00;;;;;;;30.25;19.52;98568.03;5013158;28;20038;-81
2024/04/04 11:11:50;;;;;;;7.78;0.93;;;;;;;30.06;19.56;98564.81;5013231;28;20449;-79
2024/04/04 11:14:18;;;;;;;3.25;1.10;;;;;;;29.92;19.89;98559.81;5012586;28;20517;-78
2024/04/04 11:16:44;;;;;;;3.45;1.10;;;;;;;29.71;19.82;98560.53;5015583;28;20161;-79
2024/04/04 11:19:10;;;;;;;4.35;1.48;;;;;;;29.59;20.09;98553.38;5030831;28;20477;-82
2024/04/04 11:21:35;;;;;;;4.50;1.20;;;;;;;29.46;20.17;98550.19;5012648;28;20110;-79
2024/04/04 11:24:01;;;;;;;3.22;1.40;;;;;;;29.37;20.12;98541.75;5028290;28;20058;-78
2024/04/04 11:26:27;;;;;;;6.00;1.52;;;;;;;29.26;20.63;98538.06;5027883;28;20034;-79